createdAt,value
2018-09-24T00:01:56.012Z,98627.09
2018-09-24T00:04:26.085Z,98628.16
2018-09-24T00:06:56.079Z,98642.10
2018-09-24T00:09:26.017Z,98637.88
2018-09-24T00:11:56.351Z,98663.06
2018-09-24T00:14:26.369Z,98669.73
2018-09-24T00:16:56.356Z,98680.38
2018-09-24T00:19:26.481Z,98685.71
2018-09-24T00:21:56.676Z,98689.48
2018-09-24T00:24:26.705Z,98701.47
2018-09-24T00:26:56.692Z,98705.96
2018-09-24T00:29:27.044Z,98715.16
2018-09-24T00:31:57.174Z,98720.97
2018-09-24T00:34:28.203Z,98727.02
2018-09-24T00:36:58.462Z,98732.12
2018-09-24T00:39:28.670Z,98734.42
2018-09-24T00:41:58.795Z,98743.63
2018-09-24T00:44:28.851Z,98742.78
2018-09-24T00:46:59.031Z,98753.44
2018-09-24T00:49:29.472Z,98765.91
2018-09-24T00:51:59.526Z,98763.73
2018-09-24T00:54:29.758Z,98777.06
2018-09-24T00:56:59.958Z,98764.71
2018-09-24T00:59:29.937Z,98773.22
2018-09-24T01:01:59.868Z,98775.05
2018-09-24T01:04:29.932Z,98780.21
2018-09-24T01:07:00.169Z,98779.88
2018-09-24T01:09:31.220Z,98781.55
2018-09-24T01:12:01.354Z,98786.19
2018-09-24T01:14:31.425Z,98793.05
2018-09-24T01:17:01.614Z,98789.83
2018-09-24T01:19:31.529Z,98797.46
2018-09-24T01:22:01.613Z,98814.66
2018-09-24T01:24:31.678Z,98814.66
2018-09-24T01:27:01.833Z,98815.98
2018-09-24T01:29:31.865Z,98819.75
2018-09-24T01:32:01.966Z,98834.41
2018-09-24T01:34:31.985Z,98828.59
2018-09-24T01:37:01.993Z,98836.09
2018-09-24T01:39:31.933Z,98840.70
2018-09-24T01:42:01.892Z,98841.68
2018-09-24T01:44:31.893Z,98852.21
2018-09-24T01:47:01.923Z,98849.80
2018-09-24T01:49:31.851Z,98854.52
2018-09-24T01:52:01.857Z,98853.67
2018-09-24T01:54:31.987Z,98845.48
2018-09-24T01:57:01.908Z,98850.32
2018-09-24T01:59:31.839Z,98850.45
2018-09-24T02:02:01.805Z,98845.80
2018-09-24T02:04:31.792Z,98847.49
2018-09-24T02:07:02.045Z,98857.95
2018-09-24T02:09:32.319Z,98866.30
2018-09-24T02:12:05.556Z,98870.79
2018-09-24T02:14:36.097Z,98872.61
2018-09-24T02:17:06.493Z,98876.73
2018-09-24T02:19:36.523Z,98872.37
2018-09-24T02:22:06.500Z,98868.25
2018-09-24T02:24:36.519Z,98879.87
2018-09-24T02:27:08.744Z,98882.54
2018-09-24T02:29:39.345Z,98883.03
2018-09-24T02:32:09.374Z,98887.75
2018-09-24T02:34:39.448Z,98901.91
2018-09-24T02:37:09.571Z,98907.00
2018-09-24T02:39:39.608Z,98906.16
2018-09-24T02:42:09.761Z,98913.30
2018-09-24T02:44:39.830Z,98910.16
2018-09-24T02:47:09.767Z,98906.52
2018-09-24T02:49:39.881Z,98916.33
2018-09-24T02:52:10.564Z,98913.43
2018-09-24T02:54:40.503Z,98916.45
2018-09-24T02:57:10.450Z,98912.94
2018-09-24T02:59:44.994Z,98931.11
2018-09-24T03:02:15.037Z,98936.08
2018-09-24T03:04:45.069Z,98936.56
2018-09-24T03:07:14.986Z,98937.89
2018-09-24T03:09:45.077Z,98945.20
2018-09-24T03:12:15.125Z,98950.36
2018-09-24T03:14:45.303Z,98947.70
2018-09-24T03:17:17.678Z,98948.55
2018-09-24T03:19:47.697Z,98945.20
2018-09-24T03:22:20.903Z,98956.34
2018-09-24T03:24:51.453Z,98971.83
2018-09-24T03:27:22.213Z,98967.96
2018-09-24T03:29:52.309Z,98967.59
2018-09-24T03:32:22.341Z,98962.77
2018-09-24T03:34:52.391Z,98975.34
2018-09-24T03:37:22.555Z,98957.92
2018-09-24T03:39:52.546Z,98975.95
2018-09-24T03:42:22.562Z,98983.94
2018-09-24T03:44:52.842Z,98986.73
2018-09-24T03:47:22.876Z,98992.91
2018-09-24T03:49:52.998Z,98994.23
2018-09-24T03:52:22.958Z,98990.97
2018-09-24T03:54:52.923Z,98991.45
2018-09-24T03:57:22.886Z,98994.72
2018-09-24T03:59:52.979Z,98992.64
2018-09-24T04:02:23.102Z,98999.66
2018-09-24T04:04:58.458Z,99004.63
2018-09-24T04:07:33.897Z,99002.44
2018-09-24T04:10:09.289Z,99005.59
2018-09-24T04:12:44.579Z,99014.30
2018-09-24T04:15:20.073Z,99012.97
2018-09-24T04:17:55.430Z,99027.53
2018-09-24T04:20:30.789Z,99030.20
2018-09-24T04:23:05.987Z,99032.74
2018-09-24T04:25:41.329Z,99024.63
2018-09-24T04:28:16.506Z,99034.77
2018-09-24T04:30:51.750Z,99038.44
2018-09-24T04:33:26.884Z,99025.72
2018-09-24T04:36:02.076Z,99043.88
2018-09-24T04:38:37.447Z,99046.42
2018-09-24T04:41:12.725Z,99051.52
2018-09-24T04:43:47.937Z,99045.79
2018-09-24T04:46:23.375Z,99052.09
2018-09-24T04:48:58.737Z,99061.08
2018-09-24T04:51:34.114Z,99054.05
2018-09-24T04:54:09.278Z,99059.47
2018-09-24T04:56:44.525Z,99063.95
2018-09-24T04:59:19.662Z,99070.82
2018-09-24T05:01:54.898Z,99082.60
2018-09-24T05:04:30.466Z,99091.69
2018-09-24T05:07:05.813Z,99095.20
2018-09-24T05:09:41.196Z,99085.87
2018-09-24T05:12:16.442Z,99099.20
2018-09-24T05:14:51.650Z,99096.65
2018-09-24T05:17:26.866Z,99102.01
2018-09-24T05:20:02.110Z,99104.30
2018-09-24T05:22:37.340Z,99099.55
2018-09-24T05:25:12.774Z,99106.12
2018-09-24T05:27:47.811Z,99118.44
2018-09-24T05:30:23.235Z,99115.92
2018-09-24T05:32:58.438Z,99121.12
2018-09-24T05:35:33.752Z,99116.80
2018-09-24T05:38:09.096Z,99119.06
2018-09-24T05:40:44.653Z,99123.70
2018-09-24T05:43:19.885Z,99124.66
2018-09-24T05:45:55.165Z,99135.44
2018-09-24T05:48:30.668Z,99136.03
2018-09-24T05:53:39.728Z,99156.14
2018-09-24T05:56:15.189Z,99173.70
2018-09-24T05:58:50.407Z,99169.09
2018-09-24T06:01:25.927Z,99170.54
2018-09-24T06:04:01.298Z,99164.98
2018-09-24T06:06:36.663Z,99179.28
2018-09-24T06:09:14.111Z,99178.91
2018-09-24T06:11:49.413Z,99176.36
2018-09-24T06:14:24.460Z,99178.78
2018-09-24T06:16:59.653Z,99196.45
2018-09-24T06:19:34.896Z,99216.31
2018-09-24T06:22:10.217Z,99213.39
2018-09-24T06:24:45.557Z,99217.76
2018-09-24T06:27:20.989Z,99213.77
2018-09-24T06:29:56.172Z,99215.58
2018-09-24T06:32:31.697Z,99232.88
2018-09-24T06:35:07.182Z,99231.56
2018-09-24T06:37:42.639Z,99233.97
2018-09-24T06:40:17.913Z,99233.48
2018-09-24T06:42:53.298Z,99239.55
2018-09-24T06:45:28.612Z,99242.55
2018-09-24T06:48:03.935Z,99256.34
2018-09-24T06:50:39.336Z,99247.17
2018-09-24T06:53:14.739Z,99256.11
2018-09-24T06:55:49.985Z,99254.64
2018-09-24T06:58:25.386Z,99267.63
2018-09-24T07:01:00.683Z,99268.95
2018-09-24T07:03:36.074Z,99303.09
2018-09-24T07:06:11.467Z,99300.69
2018-09-24T07:08:46.891Z,99298.25
2018-09-24T07:11:22.252Z,99308.17
2018-09-24T07:13:57.454Z,99294.64
2018-09-24T07:16:32.670Z,99319.69
2018-09-24T07:19:07.982Z,99312.19
2018-09-24T07:21:43.548Z,99326.46
2018-09-24T07:24:18.847Z,99314.70
2018-09-24T07:26:54.219Z,99329.09
2018-09-24T07:29:29.607Z,99320.14
2018-09-24T07:32:04.908Z,99339.38
2018-09-24T07:34:40.129Z,99329.80
2018-09-24T07:37:15.651Z,99340.22
2018-09-24T07:39:50.787Z,99341.89
2018-09-24T07:42:26.057Z,99383.78
2018-09-24T07:45:01.290Z,99347.36
2018-09-24T07:47:36.614Z,99358.34
2018-09-24T07:50:11.873Z,99366.09
2018-09-24T07:52:46.985Z,99368.13
2018-09-24T07:55:22.405Z,99379.73
2018-09-24T07:57:57.736Z,99384.57
2018-09-24T08:00:33.098Z,99369.78
2018-09-24T08:03:08.297Z,99383.34
2018-09-24T08:05:43.525Z,99396.28
2018-09-24T08:08:18.958Z,99401.23
2018-09-24T08:10:54.339Z,99415.98
2018-09-24T08:13:29.649Z,99432.32
2018-09-24T08:16:04.768Z,99416.35
2018-09-24T08:18:40.052Z,99434.75
2018-09-24T08:21:15.454Z,99412.73
2018-09-24T08:23:50.907Z,99425.30
2018-09-24T08:26:26.310Z,99430.14
2018-09-24T08:29:01.789Z,99427.61
2018-09-24T08:31:37.045Z,99431.95
2018-09-24T08:34:12.367Z,99433.79
2018-09-24T08:36:47.600Z,99439.34
2018-09-24T08:39:22.814Z,99432.21
2018-09-24T08:41:57.914Z,99428.27
2018-09-24T08:44:33.164Z,99429.48
2018-09-24T08:47:08.654Z,99443.21
2018-09-24T08:49:44.074Z,99454.99
2018-09-24T08:52:19.268Z,99455.47
2018-09-24T08:54:54.656Z,99478.18
2018-09-24T08:57:29.846Z,99476.00
2018-09-24T09:00:05.011Z,99472.38
2018-09-24T09:02:40.296Z,99450.42
2018-09-24T09:05:15.688Z,99467.53
2018-09-24T09:07:50.838Z,99470.85
2018-09-24T09:10:26.214Z,99466.49
2018-09-24T09:13:01.353Z,99477.13
2018-09-24T09:15:36.925Z,99493.34
2018-09-24T09:18:12.360Z,99489.83
2018-09-24T09:20:47.588Z,99497.81
2018-09-24T09:23:22.958Z,99484.03
2018-09-24T09:25:58.352Z,99485.12
2018-09-24T09:28:33.553Z,99492.92
2018-09-24T09:31:09.072Z,99470.50
2018-09-24T09:33:44.260Z,99498.81
2018-09-24T09:36:19.734Z,99473.48
2018-09-24T09:38:55.103Z,99481.34
2018-09-24T09:41:30.389Z,99472.50
2018-09-24T09:44:05.662Z,99474.67
2018-09-24T09:46:40.991Z,99479.03
2018-09-24T09:49:16.125Z,99482.75
2018-09-24T09:51:51.446Z,99477.80
2018-09-24T09:54:26.710Z,99473.03
2018-09-24T09:57:01.909Z,99482.45
2018-09-24T09:59:37.144Z,99473.44
2018-09-24T10:02:12.691Z,99477.98
2018-09-24T10:04:48.202Z,99476.77
2018-09-24T10:07:23.324Z,99469.90
2018-09-24T10:09:58.426Z,99465.53
2018-09-24T10:12:33.650Z,99452.80
2018-09-24T10:15:09.061Z,99472.72
2018-09-24T10:17:44.247Z,99481.42
2018-09-24T10:20:19.878Z,99476.37
2018-09-24T10:22:55.110Z,99473.09
2018-09-24T10:25:30.548Z,99484.00
2018-09-24T10:28:05.903Z,99489.67
2018-09-24T10:30:41.139Z,99486.68
2018-09-24T10:33:16.375Z,99478.22
2018-09-24T10:35:51.778Z,99487.91
2018-09-24T10:38:26.954Z,99477.36
2018-09-24T10:41:02.218Z,99488.13
2018-09-24T10:43:37.682Z,99492.96
2018-09-24T10:46:12.906Z,99489.23
2018-09-24T10:48:48.125Z,99472.29
2018-09-24T10:51:23.335Z,99478.70
2018-09-24T10:53:58.745Z,99481.63
2018-09-24T10:56:34.092Z,99482.60
2018-09-24T10:59:09.455Z,99487.23
2018-09-24T11:01:44.793Z,99502.35
2018-09-24T11:04:20.052Z,99501.61
2018-09-24T11:06:55.383Z,99520.23
2018-09-24T11:09:30.552Z,99508.88
2018-09-24T11:12:05.916Z,99512.23
2018-09-24T11:14:41.115Z,99533.74
2018-09-24T11:17:16.759Z,99536.77
2018-09-24T11:19:51.744Z,99540.16
2018-09-24T11:22:27.128Z,99534.56
2018-09-24T11:25:02.307Z,99521.63
2018-09-24T11:27:37.547Z,99524.77
2018-09-24T11:30:12.826Z,99512.77
2018-09-24T11:32:48.131Z,99522.43
2018-09-24T11:35:23.790Z,99543.13
2018-09-24T11:37:59.446Z,99518.33
2018-09-24T11:40:35.352Z,99520.76
2018-09-24T11:43:10.599Z,99508.59
2018-09-24T11:45:46.127Z,99515.34
2018-09-24T11:48:21.421Z,99499.09
2018-09-24T11:50:56.663Z,99531.41
2018-09-24T11:53:31.883Z,99514.69
2018-09-24T11:56:07.423Z,99496.44
2018-09-24T11:58:42.556Z,99507.93
2018-09-24T12:01:18.032Z,99518.75
2018-09-24T12:03:53.408Z,99491.27
2018-09-24T12:06:29.114Z,99500.13
2018-09-24T12:09:04.451Z,99482.65
2018-09-24T12:11:39.627Z,99476.70
2018-09-24T12:14:14.676Z,99469.47
2018-09-24T12:16:50.046Z,99471.06
2018-09-24T12:19:25.216Z,99483.25
2018-09-24T12:22:00.566Z,99487.52
2018-09-24T12:24:35.960Z,99478.09
2018-09-24T12:27:11.624Z,99468.52
2018-09-24T12:29:46.793Z,99475.37
2018-09-24T12:32:21.985Z,99478.52
2018-09-24T12:34:57.240Z,99472.66
2018-09-24T12:37:32.537Z,99503.38
2018-09-24T12:40:07.879Z,99469.63
2018-09-24T12:42:43.127Z,99462.23
2018-09-24T12:45:18.414Z,99466.47
2018-09-24T12:47:53.644Z,99484.85
2018-09-24T13:02:07.251Z,99460.63
2018-09-24T13:04:42.358Z,99456.16
2018-09-24T13:07:17.698Z,99476.50
2018-09-24T13:15:51.294Z,99467.82
2018-09-24T13:18:26.528Z,99461.73
2018-09-24T13:21:01.939Z,99465.58
2018-09-24T13:23:37.202Z,99468.25
2018-09-24T13:26:12.902Z,99465.58
2018-09-24T13:28:48.090Z,99465.48
2018-09-24T13:31:23.410Z,99461.97
2018-09-24T13:33:58.775Z,99451.42
2018-09-24T13:36:34.142Z,99455.89
2018-09-24T13:39:10.792Z,99456.75
2018-09-24T13:41:45.959Z,99455.22
2018-09-24T13:44:21.172Z,99458.02
2018-09-24T13:46:56.491Z,99457.88
2018-09-24T13:49:32.190Z,99458.04
2018-09-24T13:52:07.589Z,99456.46
2018-09-24T13:54:42.757Z,99448.24
2018-09-24T13:57:18.039Z,99444.34
2018-09-24T13:59:53.448Z,99446.65
2018-09-24T14:02:28.870Z,99455.70
2018-09-24T14:05:04.206Z,99447.96
2018-09-24T14:07:39.535Z,99447.38
2018-09-24T14:10:14.731Z,99453.18
2018-09-24T14:12:50.074Z,99447.86
2018-09-24T14:15:25.445Z,99440.30
2018-09-24T14:18:00.792Z,99452.55
2018-09-24T14:20:36.164Z,99444.56
2018-09-24T14:23:11.748Z,99448.18
2018-09-24T14:25:46.974Z,99447.70
2018-09-24T14:28:22.397Z,99449.03
2018-09-24T14:30:57.805Z,99449.51
2018-09-24T14:33:33.236Z,99444.08
2018-09-24T14:36:08.524Z,99440.67
2018-09-24T14:38:43.877Z,99437.53
2018-09-24T14:41:19.151Z,99435.72
2018-09-24T16:13:20.955Z,99454.55
2018-09-24T16:15:56.413Z,99453.72
2018-09-24T16:18:31.849Z,99459.30
2018-09-24T16:24:14.127Z,99463.16
2018-09-24T16:26:50.143Z,99457.58
2018-09-24T16:29:25.429Z,99467.03
2018-09-24T16:34:50.996Z,99458.18
2018-09-24T16:37:26.480Z,99463.52
2018-09-24T16:40:01.812Z,99470.77
2018-09-24T16:42:37.240Z,99468.84
2018-09-24T16:45:12.697Z,99475.25
2018-09-24T16:47:47.995Z,99470.52
2018-09-24T16:50:23.137Z,99476.95
2018-09-24T16:52:58.383Z,99472.22
2018-09-24T16:55:33.610Z,99480.32
2018-09-24T16:58:09.243Z,99480.43
2018-09-24T17:00:42.884Z,99476.98
2018-09-24T17:03:18.790Z,99483.39
2018-09-24T17:11:43.967Z,99504.77
2018-09-24T17:14:19.289Z,99485.78
2018-09-24T17:16:54.673Z,99505.55
2018-09-24T17:19:29.875Z,99515.73
2018-09-24T17:22:05.205Z,99503.88
2018-09-24T17:24:40.582Z,99517.36
2018-09-24T17:27:16.099Z,99519.80
2018-09-24T17:29:51.512Z,99522.11
2018-09-24T17:32:27.004Z,99521.77
2018-09-24T17:35:02.348Z,99524.11
2018-09-24T17:37:37.728Z,99534.77
2018-09-24T17:40:13.210Z,99539.25
2018-09-24T17:42:48.570Z,99539.03
2018-09-24T17:45:23.960Z,99536.37
2018-09-24T17:47:59.581Z,99531.38
2018-09-24T17:50:34.960Z,99542.41
2018-09-24T17:53:10.132Z,99545.70
2018-09-24T17:55:45.554Z,99549.55
2018-09-24T17:58:20.909Z,99546.02
2018-09-24T18:00:56.179Z,99552.31
2018-09-24T18:03:31.619Z,99557.16
2018-09-24T18:06:07.019Z,99561.64
2018-09-24T18:08:42.420Z,99565.00
2018-09-24T18:11:17.660Z,99570.92
2018-09-24T18:13:52.857Z,99576.39
2018-09-24T18:16:28.080Z,99580.73
2018-09-24T18:19:03.543Z,99575.66
2018-09-24T18:21:38.823Z,99575.77
2018-09-24T18:24:14.262Z,99576.73
2018-09-24T18:26:49.635Z,99580.13
2018-09-24T18:29:24.977Z,99583.50
2018-09-24T18:32:00.372Z,99583.27
2018-09-24T18:34:35.736Z,99588.70
2018-09-24T18:37:11.360Z,99589.18
2018-09-24T18:39:46.806Z,99596.02
2018-09-24T18:42:22.282Z,99594.69
2018-09-24T18:44:57.773Z,99593.84
2018-09-24T18:47:33.023Z,99599.28
2018-09-24T18:50:08.444Z,99600.38
2018-09-24T18:52:43.831Z,99600.48
2018-09-24T18:55:19.271Z,99607.63
2018-09-24T18:57:54.586Z,99612.95
2018-09-24T19:00:29.967Z,99613.54
2018-09-24T19:03:05.308Z,99614.98
2018-09-24T19:05:40.677Z,99623.59
2018-09-24T19:11:10.131Z,99627.20
2018-09-24T19:13:45.447Z,99621.98
2018-09-24T19:16:20.698Z,99622.84
2018-09-24T19:18:56.098Z,99625.98
2018-09-24T19:21:31.559Z,99618.58
2018-09-24T19:24:06.900Z,99624.28
2018-09-24T19:26:42.235Z,99624.28
2018-09-24T19:29:17.598Z,99630.08
2018-09-24T19:37:21.232Z,99638.19
2018-09-24T19:39:56.727Z,99639.65
2018-09-24T19:42:32.091Z,99643.75
2018-09-24T19:45:07.442Z,99646.89
2018-09-24T19:47:42.788Z,99642.02
2018-09-24T19:50:17.940Z,99650.03
2018-09-24T19:52:53.121Z,99654.99
2018-09-24T19:55:28.729Z,99663.83
2018-09-24T19:58:04.140Z,99666.87
2018-09-24T20:00:39.542Z,99666.13
2018-09-24T20:09:14.979Z,99676.98
2018-09-24T20:11:50.410Z,99673.50
2018-09-24T20:14:25.800Z,99680.50
2018-09-24T20:19:47.538Z,99681.59
2018-09-24T20:25:24.856Z,99683.41
2018-09-24T20:31:03.193Z,99687.50
2018-09-24T20:33:38.368Z,99689.69
2018-09-24T20:42:10.874Z,99697.98
2018-09-24T20:44:46.109Z,99694.84
2018-09-24T20:47:21.553Z,99704.60
2018-09-24T20:49:56.866Z,99702.90
2018-09-24T20:52:32.316Z,99707.20
2018-09-24T20:55:08.186Z,99710.23
2018-09-24T20:57:43.569Z,99718.23
2018-09-24T21:00:18.963Z,99721.84
2018-09-24T21:02:54.210Z,99721.47
2018-09-24T21:05:29.575Z,99728.78
2018-09-24T21:08:04.783Z,99730.69
2018-09-24T21:10:40.097Z,99733.73
2018-09-24T21:13:15.399Z,99728.03
2018-09-24T21:15:50.601Z,99733.45
2018-09-24T21:18:26.042Z,99738.58
2018-09-24T21:21:01.368Z,99738.20
2018-09-24T21:23:36.889Z,99732.84
2018-09-24T21:26:12.135Z,99741.68
2018-09-24T21:28:47.335Z,99734.75
2018-09-24T21:31:22.564Z,99747.14
2018-09-24T21:33:58.050Z,99749.81
2018-09-24T21:36:33.501Z,99755.75
2018-09-24T21:39:08.875Z,99756.33
2018-09-24T21:41:44.174Z,99761.08
2018-09-24T21:44:21.115Z,99763.94
2018-09-24T21:46:56.466Z,99771.59
2018-09-24T21:49:31.914Z,99770.59
2018-09-24T21:52:07.089Z,99768.89
